sensor_id;sensor_type;location;lat;lon;timestamp;P1;durP1;ratioP1;P2;durP2;ratioP2
1328;SDS011;658;48.820;9.354;2022-08-19T00:04:01;12.67;;;11.67;;
1328;SDS011;658;48.820;9.354;2022-08-19T00:08:03;13.00;;;12.10;;
1328;SDS011;658;48.820;9.354;2022-08-19T00:12:04;12.70;;;11.80;;
1328;SDS011;658;48.820;9.354;2022-08-19T00:16:06;13.23;;;12.13;;
1328;SDS011;658;48.820;9.354;2022-08-19T00:20:07;12.57;;;11.63;;
1328;SDS011;658;48.820;9.354;2022-08-19T00:24:11;14.07;;;12.80;;
1328;SDS011;658;48.820;9.354;2022-08-19T00:28:13;12.60;;;11.73;;
1328;SDS011;658;48.820;9.354;2022-08-19T00:32:14;13.83;;;12.67;;
1328;SDS011;658;48.820;9.354;2022-08-19T00:36:14;12.93;;;12.03;;
1328;SDS011;658;48.820;9.354;2022-08-19T00:40:16;13.20;;;12.30;;
1328;SDS011;658;48.820;9.354;2022-08-19T00:44:25;13.60;;;12.60;;
1328;SDS011;658;48.820;9.354;2022-08-19T00:48:27;13.20;;;12.17;;
1328;SDS011;658;48.820;9.354;2022-08-19T00:52:35;13.90;;;12.90;;
1328;SDS011;658;48.820;9.354;2022-08-19T00:56:39;13.17;;;12.17;;
1328;SDS011;658;48.820;9.354;2022-08-19T01:00:40;13.97;;;12.87;;
1328;SDS011;658;48.820;9.354;2022-08-19T01:04:41;14.67;;;13.57;;
1328;SDS011;658;48.820;9.354;2022-08-19T01:08:41;13.07;;;12.07;;
1328;SDS011;658;48.820;9.354;2022-08-19T01:12:42;14.07;;;12.97;;
1328;SDS011;658;48.820;9.354;2022-08-19T01:16:43;15.30;;;14.10;;
1328;SDS011;658;48.820;9.354;2022-08-19T01:20:46;14.63;;;13.53;;
1328;SDS011;658;48.820;9.354;2022-08-19T01:24:47;14.53;;;13.33;;
1328;SDS011;658;48.820;9.354;2022-08-19T01:28:49;14.03;;;12.93;;
1328;SDS011;658;48.820;9.354;2022-08-19T01:32:52;14.63;;;13.37;;
1328;SDS011;658;48.820;9.354;2022-08-19T01:36:53;14.17;;;13.07;;
1328;SDS011;658;48.820;9.354;2022-08-19T01:40:53;13.63;;;12.63;;
1328;SDS011;658;48.820;9.354;2022-08-19T01:44:55;15.50;;;14.20;;
1328;SDS011;658;48.820;9.354;2022-08-19T01:48:56;15.00;;;13.60;;
1328;SDS011;658;48.820;9.354;2022-08-19T01:52:57;15.20;;;14.00;;
1328;SDS011;658;48.820;9.354;2022-08-19T01:57:03;15.70;;;14.50;;
1328;SDS011;658;48.820;9.354;2022-08-19T02:01:06;14.53;;;13.37;;
1328;SDS011;658;48.820;9.354;2022-08-19T02:05:07;14.50;;;13.40;;
1328;SDS011;658;48.820;9.354;2022-08-19T02:09:08;14.67;;;13.57;;
1328;SDS011;658;48.820;9.354;2022-08-19T02:13:09;14.40;;;13.20;;
1328;SDS011;658;48.820;9.354;2022-08-19T02:17:11;14.73;;;13.53;;
1328;SDS011;658;48.820;9.354;2022-08-19T02:21:12;14.60;;;13.20;;
1328;SDS011;658;48.820;9.354;2022-08-19T02:25:13;14.93;;;13.73;;
1328;SDS011;658;48.820;9.354;2022-08-19T02:29:14;14.53;;;13.43;;
1328;SDS011;658;48.820;9.354;2022-08-19T02:33:15;14.17;;;12.97;;
1328;SDS011;658;48.820;9.354;2022-08-19T02:37:16;14.83;;;13.63;;
1328;SDS011;658;48.820;9.354;2022-08-19T02:41:35;13.73;;;12.60;;
1328;SDS011;658;48.820;9.354;2022-08-19T02:45:37;14.13;;;12.93;;
1328;SDS011;658;48.820;9.354;2022-08-19T02:49:40;14.83;;;13.53;;
1328;SDS011;658;48.820;9.354;2022-08-19T02:53:41;15.67;;;14.37;;
1328;SDS011;658;48.820;9.354;2022-08-19T02:57:42;13.67;;;12.57;;
1328;SDS011;658;48.820;9.354;2022-08-19T03:01:42;15.17;;;13.93;;
1328;SDS011;658;48.820;9.354;2022-08-19T03:05:43;15.80;;;14.40;;
1328;SDS011;658;48.820;9.354;2022-08-19T03:09:45;15.20;;;13.90;;
1328;SDS011;658;48.820;9.354;2022-08-19T03:13:45;15.10;;;13.80;;
1328;SDS011;658;48.820;9.354;2022-08-19T03:17:46;15.03;;;13.73;;
1328;SDS011;658;48.820;9.354;2022-08-19T03:21:47;16.20;;;14.80;;
1328;SDS011;658;48.820;9.354;2022-08-19T03:25:49;16.77;;;15.27;;
1328;SDS011;658;48.820;9.354;2022-08-19T03:29:51;16.33;;;14.90;;
1328;SDS011;658;48.820;9.354;2022-08-19T03:33:52;15.80;;;14.50;;
1328;SDS011;658;48.820;9.354;2022-08-19T03:37:53;14.67;;;13.37;;
1328;SDS011;658;48.820;9.354;2022-08-19T03:41:54;15.77;;;14.37;;
1328;SDS011;658;48.820;9.354;2022-08-19T03:46:00;17.30;;;15.67;;
1328;SDS011;658;48.820;9.354;2022-08-19T03:50:05;15.10;;;13.83;;
1328;SDS011;658;48.820;9.354;2022-08-19T03:54:07;15.70;;;14.37;;
1328;SDS011;658;48.820;9.354;2022-08-19T03:58:09;15.57;;;14.23;;
1328;SDS011;658;48.820;9.354;2022-08-19T04:02:11;14.83;;;13.57;;
1328;SDS011;658;48.820;9.354;2022-08-19T04:06:14;15.80;;;14.60;;
1328;SDS011;658;48.820;9.354;2022-08-19T04:10:16;16.47;;;15.17;;
1328;SDS011;658;48.820;9.354;2022-08-19T04:14:19;17.10;;;15.50;;
1328;SDS011;658;48.820;9.354;2022-08-19T04:18:21;17.23;;;15.77;;
1328;SDS011;658;48.820;9.354;2022-08-19T04:22:22;19.33;;;17.50;;
1328;SDS011;658;48.820;9.354;2022-08-19T04:26:24;17.03;;;15.60;;
1328;SDS011;658;48.820;9.354;2022-08-19T04:30:27;18.53;;;16.83;;
1328;SDS011;658;48.820;9.354;2022-08-19T04:34:28;17.17;;;15.77;;
1328;SDS011;658;48.820;9.354;2022-08-19T04:38:29;18.00;;;16.50;;
1328;SDS011;658;48.820;9.354;2022-08-19T04:42:30;19.63;;;17.93;;
1328;SDS011;658;48.820;9.354;2022-08-19T04:46:39;18.17;;;16.60;;
1328;SDS011;658;48.820;9.354;2022-08-19T04:50:41;19.73;;;18.00;;
1328;SDS011;658;48.820;9.354;2022-08-19T04:54:43;17.20;;;15.77;;
1328;SDS011;658;48.820;9.354;2022-08-19T04:58:44;18.10;;;16.50;;
1328;SDS011;658;48.820;9.354;2022-08-19T05:02:44;18.90;;;17.17;;
1328;SDS011;658;48.820;9.354;2022-08-19T05:06:46;18.20;;;16.60;;
1328;SDS011;658;48.820;9.354;2022-08-19T05:10:48;19.57;;;17.67;;
1328;SDS011;658;48.820;9.354;2022-08-19T05:14:50;19.13;;;17.43;;
1328;SDS011;658;48.820;9.354;2022-08-19T05:18:51;19.83;;;18.17;;
1328;SDS011;658;48.820;9.354;2022-08-19T05:23:11;18.20;;;16.60;;
1328;SDS011;658;48.820;9.354;2022-08-19T05:27:16;20.40;;;18.70;;
1328;SDS011;658;48.820;9.354;2022-08-19T05:31:17;18.77;;;17.23;;
1328;SDS011;658;48.820;9.354;2022-08-19T05:35:18;20.10;;;18.33;;
1328;SDS011;658;48.820;9.354;2022-08-19T05:39:19;17.70;;;16.13;;
1328;SDS011;658;48.820;9.354;2022-08-19T05:43:20;18.93;;;17.23;;
1328;SDS011;658;48.820;9.354;2022-08-19T05:47:21;19.77;;;18.00;;
1328;SDS011;658;48.820;9.354;2022-08-19T05:51:22;20.37;;;18.60;;
1328;SDS011;658;48.820;9.354;2022-08-19T05:55:24;18.47;;;16.77;;
1328;SDS011;658;48.820;9.354;2022-08-19T05:59:25;18.33;;;16.73;;
1328;SDS011;658;48.820;9.354;2022-08-19T06:03:25;19.80;;;18.10;;
1328;SDS011;658;48.820;9.354;2022-08-19T06:07:26;20.37;;;18.67;;
1328;SDS011;658;48.820;9.354;2022-08-19T06:11:36;21.20;;;19.27;;
1328;SDS011;658;48.820;9.354;2022-08-19T06:15:39;21.83;;;19.90;;
1328;SDS011;658;48.820;9.354;2022-08-19T06:19:43;19.97;;;17.93;;
1328;SDS011;658;48.820;9.354;2022-08-19T06:23:44;20.57;;;18.80;;
1328;SDS011;658;48.820;9.354;2022-08-19T06:27:47;20.73;;;18.93;;
1328;SDS011;658;48.820;9.354;2022-08-19T06:31:48;19.73;;;18.10;;
1328;SDS011;658;48.820;9.354;2022-08-19T06:35:50;19.67;;;17.87;;
1328;SDS011;658;48.820;9.354;2022-08-19T06:39:51;21.57;;;19.77;;
1328;SDS011;658;48.820;9.354;2022-08-19T06:43:52;20.83;;;19.13;;
1328;SDS011;658;48.820;9.354;2022-08-19T06:47:54;20.80;;;19.00;;
1328;SDS011;658;48.820;9.354;2022-08-19T06:51:55;20.10;;;18.40;;
1328;SDS011;658;48.820;9.354;2022-08-19T06:55:57;20.17;;;18.27;;
1328;SDS011;658;48.820;9.354;2022-08-19T07:00:00;20.70;;;19.00;;
1328;SDS011;658;48.820;9.354;2022-08-19T07:04:00;20.40;;;18.70;;
1328;SDS011;658;48.820;9.354;2022-08-19T07:08:02;19.40;;;17.80;;
1328;SDS011;658;48.820;9.354;2022-08-19T07:12:05;20.63;;;18.97;;
1328;SDS011;658;48.820;9.354;2022-08-19T07:16:07;20.47;;;18.53;;
1328;SDS011;658;48.820;9.354;2022-08-19T07:20:09;21.23;;;19.43;;
1328;SDS011;658;48.820;9.354;2022-08-19T07:24:10;21.77;;;19.87;;
1328;SDS011;658;48.820;9.354;2022-08-19T07:28:12;20.77;;;19.07;;
1328;SDS011;658;48.820;9.354;2022-08-19T07:32:12;20.97;;;19.17;;
1328;SDS011;658;48.820;9.354;2022-08-19T07:36:14;19.73;;;18.13;;
1328;SDS011;658;48.820;9.354;2022-08-19T07:40:16;21.97;;;20.10;;
1328;SDS011;658;48.820;9.354;2022-08-19T07:44:18;20.67;;;18.70;;
1328;SDS011;658;48.820;9.354;2022-08-19T07:48:20;21.37;;;19.37;;
1328;SDS011;658;48.820;9.354;2022-08-19T07:52:25;21.20;;;19.40;;
1328;SDS011;658;48.820;9.354;2022-08-19T07:56:25;21.10;;;19.10;;
1328;SDS011;658;48.820;9.354;2022-08-19T08:00:26;20.10;;;18.50;;
1328;SDS011;658;48.820;9.354;2022-08-19T08:04:27;21.00;;;19.10;;
1328;SDS011;658;48.820;9.354;2022-08-19T08:08:48;20.30;;;18.30;;
1328;SDS011;658;48.820;9.354;2022-08-19T08:13:07;21.10;;;19.13;;
1328;SDS011;658;48.820;9.354;2022-08-19T08:17:08;19.23;;;17.63;;
1328;SDS011;658;48.820;9.354;2022-08-19T08:21:09;20.10;;;18.30;;
1328;SDS011;658;48.820;9.354;2022-08-19T08:25:14;18.60;;;17.00;;
1328;SDS011;658;48.820;9.354;2022-08-19T08:29:17;17.47;;;15.97;;
1328;SDS011;658;48.820;9.354;2022-08-19T08:33:20;17.30;;;15.80;;
1328;SDS011;658;48.820;9.354;2022-08-19T08:37:22;17.80;;;16.30;;
1328;SDS011;658;48.820;9.354;2022-08-19T08:45:56;16.63;;;15.17;;
1328;SDS011;658;48.820;9.354;2022-08-19T08:50:03;17.43;;;15.93;;
1328;SDS011;658;48.820;9.354;2022-08-19T08:54:12;17.27;;;15.77;;
1328;SDS011;658;48.820;9.354;2022-08-19T08:58:17;18.27;;;16.70;;
1328;SDS011;658;48.820;9.354;2022-08-19T09:02:42;18.43;;;16.73;;
1328;SDS011;658;48.820;9.354;2022-08-19T09:06:52;18.30;;;16.50;;
1328;SDS011;658;48.820;9.354;2022-08-19T09:11:04;17.77;;;16.20;;
1328;SDS011;658;48.820;9.354;2022-08-19T09:15:10;18.20;;;16.40;;
1328;SDS011;658;48.820;9.354;2022-08-19T09:19:13;19.80;;;17.80;;
1328;SDS011;658;48.820;9.354;2022-08-19T09:23:14;17.23;;;15.73;;
1328;SDS011;658;48.820;9.354;2022-08-19T09:27:15;17.30;;;15.80;;
1328;SDS011;658;48.820;9.354;2022-08-19T09:31:18;16.70;;;15.03;;
1328;SDS011;658;48.820;9.354;2022-08-19T09:35:22;16.93;;;15.43;;
1328;SDS011;658;48.820;9.354;2022-08-19T09:39:24;18.43;;;16.80;;
1328;SDS011;658;48.820;9.354;2022-08-19T09:43:25;18.83;;;17.30;;
1328;SDS011;658;48.820;9.354;2022-08-19T09:47:27;19.20;;;17.40;;
1328;SDS011;658;48.820;9.354;2022-08-19T09:51:28;19.73;;;18.03;;
1328;SDS011;658;48.820;9.354;2022-08-19T09:55:29;18.70;;;17.00;;
1328;SDS011;658;48.820;9.354;2022-08-19T09:59:30;20.07;;;18.10;;
1328;SDS011;658;48.820;9.354;2022-08-19T10:03:31;20.50;;;18.60;;
1328;SDS011;658;48.820;9.354;2022-08-19T10:07:33;20.03;;;18.23;;
1328;SDS011;658;48.820;9.354;2022-08-19T10:11:35;19.80;;;18.10;;
1328;SDS011;658;48.820;9.354;2022-08-19T10:15:37;19.00;;;17.40;;
1328;SDS011;658;48.820;9.354;2022-08-19T10:19:40;20.07;;;17.97;;
1328;SDS011;658;48.820;9.354;2022-08-19T10:23:42;20.27;;;18.37;;
1328;SDS011;658;48.820;9.354;2022-08-19T10:27:45;19.73;;;17.80;;
1328;SDS011;658;48.820;9.354;2022-08-19T10:31:45;19.30;;;17.60;;
1328;SDS011;658;48.820;9.354;2022-08-19T10:35:47;19.77;;;17.87;;
1328;SDS011;658;48.820;9.354;2022-08-19T10:39:48;18.70;;;17.07;;
1328;SDS011;658;48.820;9.354;2022-08-19T10:43:53;20.07;;;18.27;;
1328;SDS011;658;48.820;9.354;2022-08-19T10:47:55;20.77;;;18.87;;
1328;SDS011;658;48.820;9.354;2022-08-19T10:51:56;20.50;;;18.53;;
1328;SDS011;658;48.820;9.354;2022-08-19T10:56:15;22.20;;;19.30;;
1328;SDS011;658;48.820;9.354;2022-08-19T11:00:34;20.00;;;18.10;;
1328;SDS011;658;48.820;9.354;2022-08-19T11:04:36;19.93;;;18.13;;
1328;SDS011;658;48.820;9.354;2022-08-19T11:08:37;21.27;;;19.27;;
1328;SDS011;658;48.820;9.354;2022-08-19T11:12:39;20.53;;;18.63;;
1328;SDS011;658;48.820;9.354;2022-08-19T11:16:40;18.87;;;17.17;;
1328;SDS011;658;48.820;9.354;2022-08-19T11:20:42;20.07;;;18.30;;
1328;SDS011;658;48.820;9.354;2022-08-19T11:24:43;19.93;;;18.13;;
1328;SDS011;658;48.820;9.354;2022-08-19T11:28:43;19.27;;;17.53;;
1328;SDS011;658;48.820;9.354;2022-08-19T11:32:44;19.83;;;18.00;;
1328;SDS011;658;48.820;9.354;2022-08-19T11:36:45;17.77;;;16.10;;
1328;SDS011;658;48.820;9.354;2022-08-19T11:40:53;20.53;;;18.73;;
1328;SDS011;658;48.820;9.354;2022-08-19T11:44:58;20.10;;;18.10;;
1328;SDS011;658;48.820;9.354;2022-08-19T11:48:59;19.33;;;17.47;;
1328;SDS011;658;48.820;9.354;2022-08-19T11:53:00;19.47;;;17.73;;
1328;SDS011;658;48.820;9.354;2022-08-19T11:57:02;17.87;;;16.27;;
1328;SDS011;658;48.820;9.354;2022-08-19T12:01:07;18.23;;;16.50;;
1328;SDS011;658;48.820;9.354;2022-08-19T12:05:11;17.23;;;15.43;;
1328;SDS011;658;48.820;9.354;2022-08-19T12:09:11;16.47;;;14.97;;
1328;SDS011;658;48.820;9.354;2022-08-19T12:13:12;17.80;;;16.20;;
1328;SDS011;658;48.820;9.354;2022-08-19T12:17:15;16.43;;;15.10;;
1328;SDS011;658;48.820;9.354;2022-08-19T12:21:17;18.33;;;16.73;;
1328;SDS011;658;48.820;9.354;2022-08-19T12:25:21;17.13;;;15.50;;
1328;SDS011;658;48.820;9.354;2022-08-19T12:29:21;17.60;;;15.90;;
1328;SDS011;658;48.820;9.354;2022-08-19T12:33:28;18.63;;;16.97;;
1328;SDS011;658;48.820;9.354;2022-08-19T12:37:29;16.47;;;15.07;;
1328;SDS011;658;48.820;9.354;2022-08-19T12:41:29;18.03;;;16.60;;
1328;SDS011;658;48.820;9.354;2022-08-19T12:45:30;17.43;;;15.93;;
1328;SDS011;658;48.820;9.354;2022-08-19T12:49:31;17.47;;;16.07;;
1328;SDS011;658;48.820;9.354;2022-08-19T12:53:33;17.50;;;15.90;;
1328;SDS011;658;48.820;9.354;2022-08-19T12:57:37;17.80;;;16.20;;
1328;SDS011;658;48.820;9.354;2022-08-19T13:01:38;17.80;;;16.03;;
1328;SDS011;658;48.820;9.354;2022-08-19T13:05:39;16.40;;;14.90;;
1328;SDS011;658;48.820;9.354;2022-08-19T13:09:40;17.17;;;15.40;;
1328;SDS011;658;48.820;9.354;2022-08-19T13:13:42;17.50;;;15.50;;
1328;SDS011;658;48.820;9.354;2022-08-19T13:17:44;17.30;;;15.80;;
1328;SDS011;658;48.820;9.354;2022-08-19T13:21:45;19.70;;;18.10;;
1328;SDS011;658;48.820;9.354;2022-08-19T13:25:57;19.03;;;17.33;;
1328;SDS011;658;48.820;9.354;2022-08-19T13:29:59;18.23;;;16.53;;
1328;SDS011;658;48.820;9.354;2022-08-19T13:34:24;17.37;;;15.60;;
1328;SDS011;658;48.820;9.354;2022-08-19T13:38:34;18.90;;;17.00;;
1328;SDS011;658;48.820;9.354;2022-08-19T13:42:36;18.00;;;16.23;;
1328;SDS011;658;48.820;9.354;2022-08-19T13:46:36;16.97;;;15.47;;
1328;SDS011;658;48.820;9.354;2022-08-19T13:50:41;17.03;;;15.57;;
1328;SDS011;658;48.820;9.354;2022-08-19T13:54:44;18.80;;;16.90;;
1328;SDS011;658;48.820;9.354;2022-08-19T13:58:45;17.23;;;15.80;;
1328;SDS011;658;48.820;9.354;2022-08-19T14:02:47;16.47;;;15.07;;
1328;SDS011;658;48.820;9.354;2022-08-19T14:06:51;16.90;;;15.30;;
1328;SDS011;658;48.820;9.354;2022-08-19T14:10:51;16.80;;;15.30;;
1328;SDS011;658;48.820;9.354;2022-08-19T14:14:52;16.60;;;15.20;;
1328;SDS011;658;48.820;9.354;2022-08-19T14:18:53;15.60;;;14.30;;
1328;SDS011;658;48.820;9.354;2022-08-19T14:22:53;15.57;;;14.30;;
1328;SDS011;658;48.820;9.354;2022-08-19T14:26:54;17.53;;;16.03;;
1328;SDS011;658;48.820;9.354;2022-08-19T14:30:57;16.50;;;15.10;;
1328;SDS011;658;48.820;9.354;2022-08-19T14:34:57;16.53;;;15.03;;
1328;SDS011;658;48.820;9.354;2022-08-19T14:38:58;16.30;;;14.90;;
1328;SDS011;658;48.820;9.354;2022-08-19T14:43:01;15.80;;;14.50;;
1328;SDS011;658;48.820;9.354;2022-08-19T14:47:04;17.00;;;15.40;;
1328;SDS011;658;48.820;9.354;2022-08-19T14:51:07;15.53;;;14.13;;
1328;SDS011;658;48.820;9.354;2022-08-19T14:55:08;16.03;;;14.70;;
1328;SDS011;658;48.820;9.354;2022-08-19T14:59:09;14.60;;;13.40;;
1328;SDS011;658;48.820;9.354;2022-08-19T15:03:09;16.43;;;14.97;;
1328;SDS011;658;48.820;9.354;2022-08-19T15:07:13;14.80;;;13.33;;
1328;SDS011;658;48.820;9.354;2022-08-19T15:11:14;15.33;;;13.93;;
1328;SDS011;658;48.820;9.354;2022-08-19T15:15:16;14.70;;;13.60;;
1328;SDS011;658;48.820;9.354;2022-08-19T15:19:17;16.50;;;15.20;;
1328;SDS011;658;48.820;9.354;2022-08-19T15:23:18;16.17;;;14.80;;
1328;SDS011;658;48.820;9.354;2022-08-19T15:27:20;14.97;;;13.77;;
1328;SDS011;658;48.820;9.354;2022-08-19T15:31:21;17.67;;;16.23;;
1328;SDS011;658;48.820;9.354;2022-08-19T15:35:23;17.73;;;16.20;;
1328;SDS011;658;48.820;9.354;2022-08-19T15:39:24;17.40;;;15.83;;
1328;SDS011;658;48.820;9.354;2022-08-19T15:43:25;18.10;;;16.33;;
1328;SDS011;658;48.820;9.354;2022-08-19T15:47:25;16.23;;;14.73;;
1328;SDS011;658;48.820;9.354;2022-08-19T15:51:30;16.40;;;15.07;;
1328;SDS011;658;48.820;9.354;2022-08-19T15:55:33;18.10;;;16.57;;
1328;SDS011;658;48.820;9.354;2022-08-19T15:59:36;16.37;;;15.00;;
1328;SDS011;658;48.820;9.354;2022-08-19T16:03:56;17.07;;;15.77;;
1328;SDS011;658;48.820;9.354;2022-08-19T16:08:17;15.03;;;13.73;;
1328;SDS011;658;48.820;9.354;2022-08-19T16:12:18;17.30;;;15.80;;
1328;SDS011;658;48.820;9.354;2022-08-19T16:16:23;16.77;;;15.37;;
1328;SDS011;658;48.820;9.354;2022-08-19T16:20:33;16.17;;;14.77;;
1328;SDS011;658;48.820;9.354;2022-08-19T16:24:35;15.70;;;14.30;;
1328;SDS011;658;48.820;9.354;2022-08-19T16:28:36;16.80;;;15.47;;
1328;SDS011;658;48.820;9.354;2022-08-19T16:32:41;15.27;;;14.07;;
1328;SDS011;658;48.820;9.354;2022-08-19T16:36:42;15.20;;;14.00;;
1328;SDS011;658;48.820;9.354;2022-08-19T16:40:43;16.03;;;14.73;;
1328;SDS011;658;48.820;9.354;2022-08-19T16:44:44;15.93;;;14.63;;
1328;SDS011;658;48.820;9.354;2022-08-19T16:48:45;17.10;;;15.60;;
1328;SDS011;658;48.820;9.354;2022-08-19T16:52:45;14.13;;;12.83;;
1328;SDS011;658;48.820;9.354;2022-08-19T16:56:46;16.83;;;15.20;;
1328;SDS011;658;48.820;9.354;2022-08-19T17:00:48;16.83;;;15.23;;
1328;SDS011;658;48.820;9.354;2022-08-19T17:04:50;17.23;;;15.73;;
1328;SDS011;658;48.820;9.354;2022-08-19T17:08:52;15.50;;;14.17;;
1328;SDS011;658;48.820;9.354;2022-08-19T17:12:54;15.43;;;14.23;;
1328;SDS011;658;48.820;9.354;2022-08-19T17:16:55;16.83;;;15.47;;
1328;SDS011;658;48.820;9.354;2022-08-19T17:20:55;14.83;;;13.63;;
1328;SDS011;658;48.820;9.354;2022-08-19T17:24:56;15.37;;;14.17;;
1328;SDS011;658;48.820;9.354;2022-08-19T17:28:57;15.20;;;14.00;;
1328;SDS011;658;48.820;9.354;2022-08-19T17:32:58;17.10;;;15.70;;
1328;SDS011;658;48.820;9.354;2022-08-19T17:36:58;18.23;;;16.63;;
1328;SDS011;658;48.820;9.354;2022-08-19T17:40:59;17.07;;;15.57;;
1328;SDS011;658;48.820;9.354;2022-08-19T17:45:04;17.43;;;16.07;;
1328;SDS011;658;48.820;9.354;2022-08-19T17:49:06;15.20;;;14.00;;
1328;SDS011;658;48.820;9.354;2022-08-19T17:53:07;14.97;;;13.67;;
1328;SDS011;658;48.820;9.354;2022-08-19T17:57:08;13.90;;;12.80;;
1328;SDS011;658;48.820;9.354;2022-08-19T18:01:09;14.40;;;13.30;;
1328;SDS011;658;48.820;9.354;2022-08-19T18:05:11;13.30;;;12.20;;
1328;SDS011;658;48.820;9.354;2022-08-19T18:09:12;13.73;;;12.50;;
1328;SDS011;658;48.820;9.354;2022-08-19T18:13:12;13.97;;;12.87;;
1328;SDS011;658;48.820;9.354;2022-08-19T18:17:14;12.73;;;11.73;;
1328;SDS011;658;48.820;9.354;2022-08-19T18:21:18;13.60;;;12.47;;
1328;SDS011;658;48.820;9.354;2022-08-19T18:25:19;12.10;;;11.10;;
1328;SDS011;658;48.820;9.354;2022-08-19T18:29:23;11.80;;;10.80;;
1328;SDS011;658;48.820;9.354;2022-08-19T18:33:23;12.33;;;11.43;;
1328;SDS011;658;48.820;9.354;2022-08-19T18:37:24;11.83;;;10.93;;
1328;SDS011;658;48.820;9.354;2022-08-19T18:41:25;12.97;;;11.87;;
1328;SDS011;658;48.820;9.354;2022-08-19T18:45:44;12.27;;;11.27;;
1328;SDS011;658;48.820;9.354;2022-08-19T18:50:04;12.33;;;11.43;;
1328;SDS011;658;48.820;9.354;2022-08-19T18:54:07;12.13;;;11.17;;
1328;SDS011;658;48.820;9.354;2022-08-19T18:58:09;11.03;;;10.23;;
1328;SDS011;658;48.820;9.354;2022-08-19T19:02:09;12.83;;;11.70;;
1328;SDS011;658;48.820;9.354;2022-08-19T19:06:14;11.50;;;10.50;;
1328;SDS011;658;48.820;9.354;2022-08-19T19:10:21;11.50;;;10.60;;
1328;SDS011;658;48.820;9.354;2022-08-19T19:14:26;12.03;;;10.97;;
1328;SDS011;658;48.820;9.354;2022-08-19T19:18:30;12.50;;;11.50;;
1328;SDS011;658;48.820;9.354;2022-08-19T19:22:33;10.90;;;10.10;;
1328;SDS011;658;48.820;9.354;2022-08-19T19:26:33;11.83;;;10.67;;
1328;SDS011;658;48.820;9.354;2022-08-19T19:30:35;11.00;;;10.20;;
1328;SDS011;658;48.820;9.354;2022-08-19T19:34:37;11.47;;;10.40;;
1328;SDS011;658;48.820;9.354;2022-08-19T19:38:38;11.43;;;10.53;;
1328;SDS011;658;48.820;9.354;2022-08-19T19:42:42;12.50;;;11.50;;
1328;SDS011;658;48.820;9.354;2022-08-19T19:46:42;12.27;;;11.27;;
1328;SDS011;658;48.820;9.354;2022-08-19T19:50:44;11.30;;;10.43;;
1328;SDS011;658;48.820;9.354;2022-08-19T19:54:45;11.67;;;10.80;;
1328;SDS011;658;48.820;9.354;2022-08-19T19:58:46;11.10;;;10.30;;
1328;SDS011;658;48.820;9.354;2022-08-19T20:02:49;11.57;;;10.77;;
1328;SDS011;658;48.820;9.354;2022-08-19T20:06:52;13.53;;;12.40;;
1328;SDS011;658;48.820;9.354;2022-08-19T20:10:53;13.10;;;12.10;;
1328;SDS011;658;48.820;9.354;2022-08-19T20:14:56;12.60;;;11.57;;
1328;SDS011;658;48.820;9.354;2022-08-19T20:18:57;12.33;;;11.43;;
1328;SDS011;658;48.820;9.354;2022-08-19T20:23:00;12.47;;;11.57;;
1328;SDS011;658;48.820;9.354;2022-08-19T20:27:01;12.50;;;11.50;;
1328;SDS011;658;48.820;9.354;2022-08-19T20:31:03;12.23;;;11.33;;
1328;SDS011;658;48.820;9.354;2022-08-19T20:35:03;13.20;;;12.20;;
1328;SDS011;658;48.820;9.354;2022-08-19T20:39:05;12.80;;;11.60;;
1328;SDS011;658;48.820;9.354;2022-08-19T20:43:07;12.90;;;11.90;;
1328;SDS011;658;48.820;9.354;2022-08-19T20:47:09;14.07;;;12.97;;
1328;SDS011;658;48.820;9.354;2022-08-19T20:51:10;13.97;;;12.97;;
1328;SDS011;658;48.820;9.354;2022-08-19T20:55:12;15.23;;;12.63;;
1328;SDS011;658;48.820;9.354;2022-08-19T20:59:13;14.07;;;12.57;;
1328;SDS011;658;48.820;9.354;2022-08-19T21:03:18;13.40;;;12.20;;
1328;SDS011;658;48.820;9.354;2022-08-19T21:07:20;12.93;;;11.60;;
1328;SDS011;658;48.820;9.354;2022-08-19T21:11:21;11.83;;;10.80;;
1328;SDS011;658;48.820;9.354;2022-08-19T21:15:22;12.83;;;11.70;;
1328;SDS011;658;48.820;9.354;2022-08-19T21:19:23;12.93;;;11.83;;
1328;SDS011;658;48.820;9.354;2022-08-19T21:23:25;12.10;;;11.00;;
1328;SDS011;658;48.820;9.354;2022-08-19T21:27:28;11.83;;;10.97;;
1328;SDS011;658;48.820;9.354;2022-08-19T21:31:29;12.17;;;11.17;;
1328;SDS011;658;48.820;9.354;2022-08-19T21:35:29;12.00;;;11.00;;
1328;SDS011;658;48.820;9.354;2022-08-19T21:39:30;11.40;;;10.60;;
1328;SDS011;658;48.820;9.354;2022-08-19T21:43:31;11.93;;;11.03;;
1328;SDS011;658;48.820;9.354;2022-08-19T21:47:32;13.17;;;12.17;;
1328;SDS011;658;48.820;9.354;2022-08-19T21:51:33;12.43;;;11.53;;
1328;SDS011;658;48.820;9.354;2022-08-19T21:55:34;11.73;;;10.83;;
1328;SDS011;658;48.820;9.354;2022-08-19T21:59:34;11.60;;;10.70;;
1328;SDS011;658;48.820;9.354;2022-08-19T22:03:35;13.17;;;11.97;;
1328;SDS011;658;48.820;9.354;2022-08-19T22:07:38;11.67;;;10.87;;
1328;SDS011;658;48.820;9.354;2022-08-19T22:11:38;11.77;;;10.87;;
1328;SDS011;658;48.820;9.354;2022-08-19T22:15:40;11.70;;;10.80;;
1328;SDS011;658;48.820;9.354;2022-08-19T22:19:41;12.70;;;11.80;;
1328;SDS011;658;48.820;9.354;2022-08-19T22:23:42;11.57;;;10.57;;
1328;SDS011;658;48.820;9.354;2022-08-19T22:27:45;11.90;;;11.10;;
1328;SDS011;658;48.820;9.354;2022-08-19T22:31:47;12.07;;;11.17;;
1328;SDS011;658;48.820;9.354;2022-08-19T22:35:47;10.83;;;10.03;;
1328;SDS011;658;48.820;9.354;2022-08-19T22:39:50;12.57;;;11.53;;
1328;SDS011;658;48.820;9.354;2022-08-19T22:43:51;11.47;;;10.40;;
1328;SDS011;658;48.820;9.354;2022-08-19T22:47:51;11.30;;;10.50;;
1328;SDS011;658;48.820;9.354;2022-08-19T22:51:52;11.43;;;10.53;;
1328;SDS011;658;48.820;9.354;2022-08-19T22:56:11;11.13;;;10.33;;
1328;SDS011;658;48.820;9.354;2022-08-19T23:00:13;11.20;;;10.40;;
1328;SDS011;658;48.820;9.354;2022-08-19T23:04:14;12.20;;;11.30;;
1328;SDS011;658;48.820;9.354;2022-08-19T23:08:15;11.37;;;10.57;;
1328;SDS011;658;48.820;9.354;2022-08-19T23:12:24;10.70;;;9.90;;
1328;SDS011;658;48.820;9.354;2022-08-19T23:16:26;11.10;;;10.30;;
1328;SDS011;658;48.820;9.354;2022-08-19T23:20:29;11.13;;;10.40;;
1328;SDS011;658;48.820;9.354;2022-08-19T23:24:32;10.90;;;10.10;;
1328;SDS011;658;48.820;9.354;2022-08-19T23:28:33;10.63;;;9.83;;
1328;SDS011;658;48.820;9.354;2022-08-19T23:32:53;10.70;;;9.90;;
1328;SDS011;658;48.820;9.354;2022-08-19T23:36:55;11.23;;;10.33;;
1328;SDS011;658;48.820;9.354;2022-08-19T23:40:56;10.70;;;9.97;;
1328;SDS011;658;48.820;9.354;2022-08-19T23:45:00;10.77;;;9.90;;
1328;SDS011;658;48.820;9.354;2022-08-19T23:49:03;10.70;;;9.80;;
1328;SDS011;658;48.820;9.354;2022-08-19T23:53:04;9.10;;;8.50;;
1328;SDS011;658;48.820;9.354;2022-08-19T23:57:05;10.00;;;9.20;;
